sensor_id;sensor_type;location;lat;lon;timestamp;pressure;altitude;pressure_sealevel;temperature;humidity
62703;BME280;66022;50.448;18.122;2023-11-19T00:02:10;99737.65;;;1.23;100.00
62703;BME280;66022;50.448;18.122;2023-11-19T00:06:38;99734.50;;;1.27;100.00
62703;BME280;66022;50.448;18.122;2023-11-19T00:11:06;99732.39;;;1.28;100.00
62703;BME280;66022;50.448;18.122;2023-11-19T00:15:34;99729.75;;;1.28;100.00
62703;BME280;66022;50.448;18.122;2023-11-19T00:20:02;99726.93;;;1.28;100.00
62703;BME280;66022;50.448;18.122;2023-11-19T00:24:30;99724.20;;;1.26;100.00
62703;BME280;66022;50.448;18.122;2023-11-19T00:28:58;99725.41;;;1.27;100.00
62703;BME280;66022;50.448;18.122;2023-11-19T00:33:26;99724.98;;;1.26;100.00
62703;BME280;66022;50.448;18.122;2023-11-19T00:37:54;99722.34;;;1.28;100.00
62703;BME280;66022;50.448;18.122;2023-11-19T00:42:22;99718.73;;;1.24;100.00
62703;BME280;66022;50.448;18.122;2023-11-19T00:46:50;99714.92;;;1.24;100.00
62703;BME280;66022;50.448;18.122;2023-11-19T00:51:18;99709.67;;;1.22;100.00
62703;BME280;66022;50.448;18.122;2023-11-19T00:55:46;99706.20;;;1.20;100.00
62703;BME280;66022;50.448;18.122;2023-11-19T01:00:15;99700.69;;;1.17;100.00
62703;BME280;66022;50.448;18.122;2023-11-19T01:04:42;99695.48;;;1.11;100.00
62703;BME280;66022;50.448;18.122;2023-11-19T01:09:10;99692.16;;;1.09;100.00
62703;BME280;66022;50.448;18.122;2023-11-19T01:13:38;99688.47;;;1.07;100.00
62703;BME280;66022;50.448;18.122;2023-11-19T01:18:07;99679.79;;;1.08;100.00
62703;BME280;66022;50.448;18.122;2023-11-19T01:22:35;99671.31;;;1.06;100.00
62703;BME280;66022;50.448;18.122;2023-11-19T01:27:03;99663.12;;;1.06;100.00
62703;BME280;66022;50.448;18.122;2023-11-19T01:31:31;99655.05;;;1.04;100.00
62703;BME280;66022;50.448;18.122;2023-11-19T01:35:58;99646.23;;;1.03;100.00
62703;BME280;66022;50.448;18.122;2023-11-19T01:40:26;99636.06;;;1.02;100.00
62703;BME280;66022;50.448;18.122;2023-11-19T01:44:56;99627.25;;;1.00;100.00
62703;BME280;66022;50.448;18.122;2023-11-19T01:49:22;99618.64;;;1.00;100.00
62703;BME280;66022;50.448;18.122;2023-11-19T01:53:51;99606.53;;;0.99;100.00
62703;BME280;66022;50.448;18.122;2023-11-19T01:58:19;99592.46;;;0.99;100.00
62703;BME280;66022;50.448;18.122;2023-11-19T02:02:49;99579.32;;;0.96;100.00
62703;BME280;66022;50.448;18.122;2023-11-19T02:07:22;99566.97;;;0.98;100.00
62703;BME280;66022;50.448;18.122;2023-11-19T02:11:43;99555.47;;;1.01;100.00
62703;BME280;66022;50.448;18.122;2023-11-19T02:16:11;99545.59;;;1.05;100.00
62703;BME280;66022;50.448;18.122;2023-11-19T02:20:39;99537.27;;;1.06;100.00
62703;BME280;66022;50.448;18.122;2023-11-19T02:25:07;99527.01;;;1.02;100.00
62703;BME280;66022;50.448;18.122;2023-11-19T02:29:35;99514.86;;;0.98;100.00
62703;BME280;66022;50.448;18.122;2023-11-19T02:34:03;99501.75;;;0.92;100.00
62703;BME280;66022;50.448;18.122;2023-11-19T02:38:31;99490.31;;;0.87;100.00
62703;BME280;66022;50.448;18.122;2023-11-19T02:42:59;99480.94;;;0.78;100.00
62703;BME280;66022;50.448;18.122;2023-11-19T02:47:27;99471.26;;;0.75;100.00
62703;BME280;66022;50.448;18.122;2023-11-19T02:51:55;99465.48;;;0.71;100.00
62703;BME280;66022;50.448;18.122;2023-11-19T02:56:23;99459.74;;;0.69;100.00
62703;BME280;66022;50.448;18.122;2023-11-19T03:00:51;99453.91;;;0.67;100.00
62703;BME280;66022;50.448;18.122;2023-11-19T03:05:21;99447.80;;;0.66;100.00
62703;BME280;66022;50.448;18.122;2023-11-19T03:09:47;99438.33;;;0.65;100.00
62703;BME280;66022;50.448;18.122;2023-11-19T03:14:15;99428.70;;;0.63;100.00
62703;BME280;66022;50.448;18.122;2023-11-19T03:18:43;99422.42;;;0.63;100.00
62703;BME280;66022;50.448;18.122;2023-11-19T03:23:11;99417.08;;;0.61;100.00
62703;BME280;66022;50.448;18.122;2023-11-19T03:27:39;99414.43;;;0.61;100.00
62703;BME280;66022;50.448;18.122;2023-11-19T03:32:07;99411.64;;;0.58;100.00
62703;BME280;66022;50.448;18.122;2023-11-19T03:36:35;99405.19;;;0.58;100.00
62703;BME280;66022;50.448;18.122;2023-11-19T03:41:10;99397.88;;;0.56;100.00
62703;BME280;66022;50.448;18.122;2023-11-19T03:45:31;99389.49;;;0.54;100.00
62703;BME280;66022;50.448;18.122;2023-11-19T03:49:59;99380.11;;;0.52;100.00
62703;BME280;66022;50.448;18.122;2023-11-19T03:54:27;99373.01;;;0.47;100.00
62703;BME280;66022;50.448;18.122;2023-11-19T03:58:55;99366.61;;;0.46;100.00
62703;BME280;66022;50.448;18.122;2023-11-19T04:03:23;99366.32;;;0.44;100.00
62703;BME280;66022;50.448;18.122;2023-11-19T04:07:51;99369.42;;;0.45;100.00
62703;BME280;66022;50.448;18.122;2023-11-19T04:12:19;99368.31;;;0.45;100.00
62703;BME280;66022;50.448;18.122;2023-11-19T04:16:47;99359.53;;;0.47;100.00
62703;BME280;66022;50.448;18.122;2023-11-19T04:21:15;99349.04;;;0.48;100.00
62703;BME280;66022;50.448;18.122;2023-11-19T04:25:43;99337.92;;;0.50;100.00
62703;BME280;66022;50.448;18.122;2023-11-19T04:30:11;99326.46;;;0.51;100.00
62703;BME280;66022;50.448;18.122;2023-11-19T04:34:39;99315.47;;;0.51;100.00
62703;BME280;66022;50.448;18.122;2023-11-19T04:39:07;99304.67;;;0.53;100.00
62703;BME280;66022;50.448;18.122;2023-11-19T04:43:35;99294.34;;;0.54;100.00
62703;BME280;66022;50.448;18.122;2023-11-19T04:48:03;99286.06;;;0.57;100.00
62703;BME280;66022;50.448;18.122;2023-11-19T04:52:31;99279.72;;;0.58;100.00
62703;BME280;66022;50.448;18.122;2023-11-19T04:56:59;99273.42;;;0.63;100.00
62703;BME280;66022;50.448;18.122;2023-11-19T05:01:27;99265.36;;;0.65;100.00
62703;BME280;66022;50.448;18.122;2023-11-19T05:05:55;99256.37;;;0.67;100.00
62703;BME280;66022;50.448;18.122;2023-11-19T05:10:23;99247.15;;;0.68;100.00
62703;BME280;66022;50.448;18.122;2023-11-19T05:14:51;99238.76;;;0.67;100.00
62703;BME280;66022;50.448;18.122;2023-11-19T05:19:22;99225.29;;;0.67;100.00
62703;BME280;66022;50.448;18.122;2023-11-19T05:23:47;99215.17;;;0.65;100.00
62703;BME280;66022;50.448;18.122;2023-11-19T05:28:15;99207.06;;;0.65;100.00
62703;BME280;66022;50.448;18.122;2023-11-19T05:32:43;99205.47;;;0.63;100.00
62703;BME280;66022;50.448;18.122;2023-11-19T05:37:11;99205.38;;;0.63;100.00
62703;BME280;66022;50.448;18.122;2023-11-19T05:41:39;99205.13;;;0.64;100.00
62703;BME280;66022;50.448;18.122;2023-11-19T05:46:07;99202.94;;;0.64;100.00
62703;BME280;66022;50.448;18.122;2023-11-19T05:50:35;99196.98;;;0.65;100.00
62703;BME280;66022;50.448;18.122;2023-11-19T05:55:03;99190.61;;;0.65;100.00
62703;BME280;66022;50.448;18.122;2023-11-19T05:59:31;99182.95;;;0.66;100.00
62703;BME280;66022;50.448;18.122;2023-11-19T06:03:59;99179.06;;;0.67;100.00
62703;BME280;66022;50.448;18.122;2023-11-19T06:08:27;99172.89;;;0.69;100.00
62703;BME280;66022;50.448;18.122;2023-11-19T06:12:55;99164.04;;;0.69;100.00
62703;BME280;66022;50.448;18.122;2023-11-19T06:17:23;99153.94;;;0.72;100.00
62703;BME280;66022;50.448;18.122;2023-11-19T06:21:51;99147.85;;;0.74;100.00
62703;BME280;66022;50.448;18.122;2023-11-19T06:26:19;99143.27;;;0.78;100.00
62703;BME280;66022;50.448;18.122;2023-11-19T06:30:47;99140.02;;;0.81;100.00
62703;BME280;66022;50.448;18.122;2023-11-19T06:35:15;99135.66;;;0.84;100.00
62703;BME280;66022;50.448;18.122;2023-11-19T06:39:43;99128.14;;;0.89;100.00
62703;BME280;66022;50.448;18.122;2023-11-19T06:44:11;99125.87;;;0.93;100.00
62703;BME280;66022;50.448;18.122;2023-11-19T06:48:39;99118.84;;;0.99;100.00
62703;BME280;66022;50.448;18.122;2023-11-19T06:53:07;99108.46;;;1.03;100.00
62703;BME280;66022;50.448;18.122;2023-11-19T06:57:35;99099.38;;;1.10;100.00
62703;BME280;66022;50.448;18.122;2023-11-19T07:02:03;99090.58;;;1.14;100.00
62703;BME280;66022;50.448;18.122;2023-11-19T07:06:31;99086.78;;;1.21;100.00
62703;BME280;66022;50.448;18.122;2023-11-19T07:10:59;99081.23;;;1.26;100.00
62703;BME280;66022;50.448;18.122;2023-11-19T07:15:28;99077.48;;;1.32;100.00
62703;BME280;66022;50.448;18.122;2023-11-19T07:19:58;99073.91;;;1.39;100.00
62703;BME280;66022;50.448;18.122;2023-11-19T07:24:23;99069.55;;;1.47;100.00
62703;BME280;66022;50.448;18.122;2023-11-19T07:28:51;99060.72;;;1.58;100.00
62703;BME280;66022;50.448;18.122;2023-11-19T07:33:19;99049.95;;;1.66;100.00
62703;BME280;66022;50.448;18.122;2023-11-19T07:37:47;99041.60;;;1.75;100.00
62703;BME280;66022;50.448;18.122;2023-11-19T07:42:15;99034.17;;;1.79;100.00
62703;BME280;66022;50.448;18.122;2023-11-19T07:46:43;99026.28;;;1.84;100.00
62703;BME280;66022;50.448;18.122;2023-11-19T07:51:11;99020.51;;;1.88;100.00
62703;BME280;66022;50.448;18.122;2023-11-19T07:55:39;99014.92;;;1.92;100.00
62703;BME280;66022;50.448;18.122;2023-11-19T08:00:07;99009.72;;;1.96;100.00
62703;BME280;66022;50.448;18.122;2023-11-19T08:04:35;99003.77;;;1.98;100.00
62703;BME280;66022;50.448;18.122;2023-11-19T08:09:03;98999.99;;;2.01;100.00
62703;BME280;66022;50.448;18.122;2023-11-19T08:13:31;98997.85;;;2.03;100.00
62703;BME280;66022;50.448;18.122;2023-11-19T08:17:59;98991.58;;;2.07;100.00
62703;BME280;66022;50.448;18.122;2023-11-19T08:22:27;98988.67;;;2.08;100.00
62703;BME280;66022;50.448;18.122;2023-11-19T08:26:55;98987.30;;;2.12;100.00
62703;BME280;66022;50.448;18.122;2023-11-19T08:31:24;98986.67;;;2.14;100.00
62703;BME280;66022;50.448;18.122;2023-11-19T08:35:51;98985.68;;;2.17;100.00
62703;BME280;66022;50.448;18.122;2023-11-19T08:40:19;98980.99;;;2.20;100.00
62703;BME280;66022;50.448;18.122;2023-11-19T08:44:50;98976.00;;;2.21;100.00
62703;BME280;66022;50.448;18.122;2023-11-19T08:49:15;98970.82;;;2.27;100.00
62703;BME280;66022;50.448;18.122;2023-11-19T08:53:43;98967.05;;;2.31;100.00
62703;BME280;66022;50.448;18.122;2023-11-19T08:58:11;98965.33;;;2.38;100.00
62703;BME280;66022;50.448;18.122;2023-11-19T09:02:39;98962.95;;;2.42;100.00
62703;BME280;66022;50.448;18.122;2023-11-19T09:07:07;98959.00;;;2.48;100.00
62703;BME280;66022;50.448;18.122;2023-11-19T09:11:35;98953.05;;;2.51;100.00
62703;BME280;66022;50.448;18.122;2023-11-19T09:16:03;98945.54;;;2.56;100.00
62703;BME280;66022;50.448;18.122;2023-11-19T09:20:31;98938.17;;;2.60;100.00
62703;BME280;66022;50.448;18.122;2023-11-19T09:24:59;98930.05;;;2.62;100.00
62703;BME280;66022;50.448;18.122;2023-11-19T09:29:27;98922.19;;;2.65;100.00
62703;BME280;66022;50.448;18.122;2023-11-19T09:33:55;98914.40;;;2.67;100.00
62703;BME280;66022;50.448;18.122;2023-11-19T09:38:23;98904.94;;;2.70;100.00
62703;BME280;66022;50.448;18.122;2023-11-19T09:42:52;98897.16;;;2.71;100.00
62703;BME280;66022;50.448;18.122;2023-11-19T09:47:19;98887.87;;;2.73;100.00
62703;BME280;66022;50.448;18.122;2023-11-19T09:51:47;98876.44;;;2.72;100.00
62703;BME280;66022;50.448;18.122;2023-11-19T09:56:15;98867.47;;;2.72;100.00
62703;BME280;66022;50.448;18.122;2023-11-19T10:00:43;98859.52;;;2.74;100.00
62703;BME280;66022;50.448;18.122;2023-11-19T10:05:11;98851.14;;;2.73;100.00
62703;BME280;66022;50.448;18.122;2023-11-19T10:09:39;98840.16;;;2.70;100.00
62703;BME280;66022;50.448;18.122;2023-11-19T10:14:07;98828.14;;;2.65;100.00
62703;BME280;66022;50.448;18.122;2023-11-19T10:18:35;98817.92;;;2.60;100.00
62703;BME280;66022;50.448;18.122;2023-11-19T10:23:03;98805.44;;;2.51;100.00
62703;BME280;66022;50.448;18.122;2023-11-19T10:27:31;98793.33;;;2.46;100.00
62703;BME280;66022;50.448;18.122;2023-11-19T10:31:59;98783.76;;;2.38;100.00
62703;BME280;66022;50.448;18.122;2023-11-19T10:40:55;98767.66;;;2.28;100.00
62703;BME280;66022;50.448;18.122;2023-11-19T10:45:23;98759.61;;;2.25;100.00
62703;BME280;66022;50.448;18.122;2023-11-19T10:49:51;98750.34;;;2.23;100.00
62703;BME280;66022;50.448;18.122;2023-11-19T10:54:19;98739.06;;;2.22;100.00
62703;BME280;66022;50.448;18.122;2023-11-19T10:58:47;98726.28;;;2.23;100.00
62703;BME280;66022;50.448;18.122;2023-11-19T11:03:16;98715.03;;;2.23;100.00
62703;BME280;66022;50.448;18.122;2023-11-19T11:07:43;98705.18;;;2.27;100.00
62703;BME280;66022;50.448;18.122;2023-11-19T11:12:11;98695.54;;;2.30;100.00
62703;BME280;66022;50.448;18.122;2023-11-19T11:16:41;98687.68;;;2.36;100.00
62703;BME280;66022;50.448;18.122;2023-11-19T11:21:08;98680.49;;;2.43;100.00
62703;BME280;66022;50.448;18.122;2023-11-19T11:38:59;98650.80;;;2.70;100.00
62703;BME280;66022;50.448;18.122;2023-11-19T11:52:23;98639.17;;;2.91;100.00
62703;BME280;66022;50.448;18.122;2023-11-19T12:01:19;98631.42;;;3.05;100.00
62703;BME280;66022;50.448;18.122;2023-11-19T12:05:47;98627.99;;;3.11;100.00
62703;BME280;66022;50.448;18.122;2023-11-19T12:10:15;98621.77;;;3.18;100.00
62703;BME280;66022;50.448;18.122;2023-11-19T12:19:11;98605.52;;;3.34;100.00
62703;BME280;66022;50.448;18.122;2023-11-19T12:28:11;98594.17;;;3.49;100.00
62703;BME280;66022;50.448;18.122;2023-11-19T12:32:43;98588.83;;;3.57;100.00
62703;BME280;66022;50.448;18.122;2023-11-19T12:37:03;98583.69;;;3.68;100.00
62703;BME280;66022;50.448;18.122;2023-11-19T12:41:31;98577.08;;;3.75;100.00
62703;BME280;66022;50.448;18.122;2023-11-19T12:45:59;98573.14;;;3.80;100.00
62703;BME280;66022;50.448;18.122;2023-11-19T12:50:27;98570.88;;;3.85;100.00
62703;BME280;66022;50.448;18.122;2023-11-19T12:54:55;98565.19;;;3.88;100.00
62703;BME280;66022;50.448;18.122;2023-11-19T12:59:23;98562.45;;;3.92;100.00
62703;BME280;66022;50.448;18.122;2023-11-19T13:03:51;98558.26;;;3.95;100.00
62703;BME280;66022;50.448;18.122;2023-11-19T13:08:19;98552.61;;;3.98;100.00
62703;BME280;66022;50.448;18.122;2023-11-19T13:12:59;98545.94;;;3.99;100.00
62703;BME280;66022;50.448;18.122;2023-11-19T13:17:15;98537.36;;;4.02;100.00
62703;BME280;66022;50.448;18.122;2023-11-19T13:21:43;98529.19;;;4.04;100.00
62703;BME280;66022;50.448;18.122;2023-11-19T13:26:11;98524.52;;;4.08;100.00
62703;BME280;66022;50.448;18.122;2023-11-19T13:30:39;98521.23;;;4.11;100.00
62703;BME280;66022;50.448;18.122;2023-11-19T13:35:07;98515.58;;;4.13;100.00
62703;BME280;66022;50.448;18.122;2023-11-19T13:39:35;98509.55;;;4.16;100.00
62703;BME280;66022;50.448;18.122;2023-11-19T13:44:03;98504.46;;;4.18;100.00
62703;BME280;66022;50.448;18.122;2023-11-19T13:48:31;98498.86;;;4.22;100.00
62703;BME280;66022;50.448;18.122;2023-11-19T13:52:59;98497.09;;;4.24;100.00
62703;BME280;66022;50.448;18.122;2023-11-19T13:57:29;98495.40;;;4.27;100.00
62703;BME280;66022;50.448;18.122;2023-11-19T14:01:58;98491.88;;;4.29;100.00
62703;BME280;66022;50.448;18.122;2023-11-19T14:06:25;98488.89;;;4.32;100.00
62703;BME280;66022;50.448;18.122;2023-11-19T14:10:51;98484.20;;;4.34;100.00
62703;BME280;66022;50.448;18.122;2023-11-19T14:15:24;98481.85;;;4.36;100.00
62703;BME280;66022;50.448;18.122;2023-11-19T14:19:50;98479.74;;;4.40;100.00
62703;BME280;66022;50.448;18.122;2023-11-19T14:24:18;98478.55;;;4.43;100.00
62703;BME280;66022;50.448;18.122;2023-11-19T14:28:43;98478.06;;;4.48;100.00
62703;BME280;66022;50.448;18.122;2023-11-19T14:33:11;98476.88;;;4.51;100.00
62703;BME280;66022;50.448;18.122;2023-11-19T14:37:39;98475.32;;;4.56;100.00
62703;BME280;66022;50.448;18.122;2023-11-19T14:42:07;98473.22;;;4.58;100.00
62703;BME280;66022;50.448;18.122;2023-11-19T14:46:41;98472.25;;;4.63;100.00
62703;BME280;66022;50.448;18.122;2023-11-19T14:51:03;98471.03;;;4.67;100.00
62703;BME280;66022;50.448;18.122;2023-11-19T14:55:31;98471.89;;;4.72;100.00
62703;BME280;66022;50.448;18.122;2023-11-19T14:59:59;98475.51;;;4.77;100.00
62703;BME280;66022;50.448;18.122;2023-11-19T15:04:27;98478.75;;;4.79;100.00
62703;BME280;66022;50.448;18.122;2023-11-19T15:08:55;98482.61;;;4.82;100.00
62703;BME280;66022;50.448;18.122;2023-11-19T15:13:23;98485.52;;;4.82;100.00
62703;BME280;66022;50.448;18.122;2023-11-19T15:17:51;98489.34;;;4.84;100.00
62703;BME280;66022;50.448;18.122;2023-11-19T15:22:19;98491.09;;;4.83;100.00
62703;BME280;66022;50.448;18.122;2023-11-19T15:26:47;98492.65;;;4.85;100.00
62703;BME280;66022;50.448;18.122;2023-11-19T15:31:15;98492.15;;;4.85;100.00
62703;BME280;66022;50.448;18.122;2023-11-19T15:35:43;98490.63;;;4.86;100.00
62703;BME280;66022;50.448;18.122;2023-11-19T15:40:11;98489.61;;;4.87;100.00
62703;BME280;66022;50.448;18.122;2023-11-19T15:44:39;98488.72;;;4.87;100.00
62703;BME280;66022;50.448;18.122;2023-11-19T15:49:07;98488.62;;;4.88;100.00
62703;BME280;66022;50.448;18.122;2023-11-19T15:53:35;98489.72;;;4.87;100.00
62703;BME280;66022;50.448;18.122;2023-11-19T15:58:03;98490.64;;;4.85;100.00
62703;BME280;66022;50.448;18.122;2023-11-19T16:02:31;98492.44;;;4.81;100.00
62703;BME280;66022;50.448;18.122;2023-11-19T16:06:59;98493.95;;;4.81;100.00
62703;BME280;66022;50.448;18.122;2023-11-19T16:11:27;98493.44;;;4.80;100.00
62703;BME280;66022;50.448;18.122;2023-11-19T16:15:55;98494.86;;;4.80;100.00
62703;BME280;66022;50.448;18.122;2023-11-19T16:20:23;98495.95;;;4.80;100.00
62703;BME280;66022;50.448;18.122;2023-11-19T16:24:51;98495.31;;;4.77;100.00
62703;BME280;66022;50.448;18.122;2023-11-19T16:29:19;98496.62;;;4.78;100.00
62703;BME280;66022;50.448;18.122;2023-11-19T16:33:47;98496.14;;;4.76;100.00
62703;BME280;66022;50.448;18.122;2023-11-19T16:38:15;98497.30;;;4.76;100.00
62703;BME280;66022;50.448;18.122;2023-11-19T16:42:43;98497.92;;;4.74;100.00
62703;BME280;66022;50.448;18.122;2023-11-19T16:47:14;98497.42;;;4.74;100.00
62703;BME280;66022;50.448;18.122;2023-11-19T16:51:39;98500.94;;;4.74;100.00
62703;BME280;66022;50.448;18.122;2023-11-19T16:56:07;98504.10;;;4.74;100.00
62703;BME280;66022;50.448;18.122;2023-11-19T17:00:35;98508.09;;;4.74;100.00
62703;BME280;66022;50.448;18.122;2023-11-19T17:05:03;98511.75;;;4.73;100.00
62703;BME280;66022;50.448;18.122;2023-11-19T17:09:31;98514.42;;;4.73;100.00
62703;BME280;66022;50.448;18.122;2023-11-19T17:13:59;98514.42;;;4.72;100.00
62703;BME280;66022;50.448;18.122;2023-11-19T17:18:27;98514.67;;;4.72;100.00
62703;BME280;66022;50.448;18.122;2023-11-19T17:22:55;98513.53;;;4.69;100.00
62703;BME280;66022;50.448;18.122;2023-11-19T17:27:23;98512.31;;;4.68;100.00
62703;BME280;66022;50.448;18.122;2023-11-19T17:31:52;98512.39;;;4.68;100.00
62703;BME280;66022;50.448;18.122;2023-11-19T17:36:22;98513.60;;;4.71;100.00
62703;BME280;66022;50.448;18.122;2023-11-19T17:40:48;98513.90;;;4.75;100.00
62703;BME280;66022;50.448;18.122;2023-11-19T17:45:15;98512.27;;;4.78;100.00
62703;BME280;66022;50.448;18.122;2023-11-19T17:49:43;98509.77;;;4.80;100.00
62703;BME280;66022;50.448;18.122;2023-11-19T17:54:11;98508.78;;;4.79;100.00
62703;BME280;66022;50.448;18.122;2023-11-19T17:58:39;98507.53;;;4.79;100.00
62703;BME280;66022;50.448;18.122;2023-11-19T18:03:07;98507.56;;;4.77;100.00
62703;BME280;66022;50.448;18.122;2023-11-19T18:07:35;98506.31;;;4.76;100.00
62703;BME280;66022;50.448;18.122;2023-11-19T18:12:05;98504.52;;;4.73;100.00
62703;BME280;66022;50.448;18.122;2023-11-19T18:16:31;98504.67;;;4.73;100.00
62703;BME280;66022;50.448;18.122;2023-11-19T18:20:59;98503.83;;;4.73;100.00
62703;BME280;66022;50.448;18.122;2023-11-19T18:25:30;98502.34;;;4.73;100.00
62703;BME280;66022;50.448;18.122;2023-11-19T18:29:55;98501.53;;;4.73;100.00
62703;BME280;66022;50.448;18.122;2023-11-19T18:34:23;98500.28;;;4.73;100.00
62703;BME280;66022;50.448;18.122;2023-11-19T18:38:51;98498.91;;;4.76;100.00
62703;BME280;66022;50.448;18.122;2023-11-19T18:43:19;98496.49;;;4.77;100.00
62703;BME280;66022;50.448;18.122;2023-11-19T18:47:47;98495.76;;;4.80;100.00
62703;BME280;66022;50.448;18.122;2023-11-19T18:52:15;98494.29;;;4.81;100.00
62703;BME280;66022;50.448;18.122;2023-11-19T18:56:43;98495.01;;;4.83;100.00
62703;BME280;66022;50.448;18.122;2023-11-19T19:01:11;98493.91;;;4.83;100.00
62703;BME280;66022;50.448;18.122;2023-11-19T19:05:39;98492.58;;;4.83;100.00
62703;BME280;66022;50.448;18.122;2023-11-19T19:10:07;98490.24;;;4.85;100.00
62703;BME280;66022;50.448;18.122;2023-11-19T19:14:35;98487.89;;;4.85;100.00
62703;BME280;66022;50.448;18.122;2023-11-19T19:19:03;98488.62;;;4.88;100.00
62703;BME280;66022;50.448;18.122;2023-11-19T19:23:31;98490.49;;;4.90;100.00
62703;BME280;66022;50.448;18.122;2023-11-19T19:27:59;98492.54;;;4.93;100.00
62703;BME280;66022;50.448;18.122;2023-11-19T19:32:27;98494.80;;;4.94;100.00
62703;BME280;66022;50.448;18.122;2023-11-19T19:36:55;98497.25;;;4.98;100.00
62703;BME280;66022;50.448;18.122;2023-11-19T19:41:23;98498.88;;;5.00;100.00
62703;BME280;66022;50.448;18.122;2023-11-19T19:45:52;98499.41;;;5.03;100.00
62703;BME280;66022;50.448;18.122;2023-11-19T19:50:21;98498.99;;;5.05;100.00
62703;BME280;66022;50.448;18.122;2023-11-19T19:54:47;98498.21;;;5.06;100.00
62703;BME280;66022;50.448;18.122;2023-11-19T19:59:15;98498.14;;;5.13;100.00
62703;BME280;66022;50.448;18.122;2023-11-19T20:03:44;98498.11;;;5.16;100.00
62703;BME280;66022;50.448;18.122;2023-11-19T20:08:11;98498.55;;;5.19;100.00
62703;BME280;66022;50.448;18.122;2023-11-19T20:12:40;98497.50;;;5.18;100.00
62703;BME280;66022;50.448;18.122;2023-11-19T20:17:07;98497.05;;;5.19;100.00
62703;BME280;66022;50.448;18.122;2023-11-19T20:21:35;98498.14;;;5.19;100.00
62703;BME280;66022;50.448;18.122;2023-11-19T20:26:03;98500.05;;;5.19;100.00
62703;BME280;66022;50.448;18.122;2023-11-19T20:30:31;98501.36;;;5.20;100.00
62703;BME280;66022;50.448;18.122;2023-11-19T20:34:59;98503.14;;;5.19;100.00
62703;BME280;66022;50.448;18.122;2023-11-19T20:39:28;98503.28;;;5.20;100.00
62703;BME280;66022;50.448;18.122;2023-11-19T20:43:55;98501.98;;;5.19;100.00
62703;BME280;66022;50.448;18.122;2023-11-19T20:48:23;98500.64;;;5.19;100.00
62703;BME280;66022;50.448;18.122;2023-11-19T20:52:51;98499.32;;;5.19;100.00
62703;BME280;66022;50.448;18.122;2023-11-19T20:57:19;98498.05;;;5.19;100.00
62703;BME280;66022;50.448;18.122;2023-11-19T21:01:47;98497.74;;;5.19;100.00
62703;BME280;66022;50.448;18.122;2023-11-19T21:06:15;98496.22;;;5.19;100.00
62703;BME280;66022;50.448;18.122;2023-11-19T21:10:43;98496.87;;;5.20;100.00
62703;BME280;66022;50.448;18.122;2023-11-19T21:15:11;98498.63;;;5.21;100.00
62703;BME280;66022;50.448;18.122;2023-11-19T21:19:39;98500.09;;;5.24;100.00
62703;BME280;66022;50.448;18.122;2023-11-19T21:24:07;98501.22;;;5.26;100.00
62703;BME280;66022;50.448;18.122;2023-11-19T21:28:38;98500.25;;;5.29;100.00
62703;BME280;66022;50.448;18.122;2023-11-19T21:33:03;98499.97;;;5.31;100.00
62703;BME280;66022;50.448;18.122;2023-11-19T21:37:31;98499.67;;;5.35;100.00
62703;BME280;66022;50.448;18.122;2023-11-19T21:41:59;98499.81;;;5.38;100.00
62703;BME280;66022;50.448;18.122;2023-11-19T21:46:27;98500.42;;;5.42;100.00
62703;BME280;66022;50.448;18.122;2023-11-19T21:50:55;98500.81;;;5.45;100.00
62703;BME280;66022;50.448;18.122;2023-11-19T21:55:23;98502.95;;;5.46;100.00
62703;BME280;66022;50.448;18.122;2023-11-19T21:59:51;98504.35;;;5.48;100.00
62703;BME280;66022;50.448;18.122;2023-11-19T22:04:20;98506.09;;;5.48;100.00
62703;BME280;66022;50.448;18.122;2023-11-19T22:08:47;98506.30;;;5.51;100.00
62703;BME280;66022;50.448;18.122;2023-11-19T22:13:15;98506.30;;;5.51;100.00
62703;BME280;66022;50.448;18.122;2023-11-19T22:17:43;98506.78;;;5.52;100.00
62703;BME280;66022;50.448;18.122;2023-11-19T22:22:12;98507.03;;;5.51;100.00
62703;BME280;66022;50.448;18.122;2023-11-19T22:26:39;98506.09;;;5.54;100.00
62703;BME280;66022;50.448;18.122;2023-11-19T22:31:07;98503.80;;;5.57;100.00
62703;BME280;66022;50.448;18.122;2023-11-19T22:35:35;98502.76;;;5.60;100.00
62703;BME280;66022;50.448;18.122;2023-11-19T22:40:04;98501.45;;;5.63;100.00
62703;BME280;66022;50.448;18.122;2023-11-19T22:44:33;98501.74;;;5.66;100.00
62703;BME280;66022;50.448;18.122;2023-11-19T22:48:59;98501.65;;;5.72;100.00
62703;BME280;66022;50.448;18.122;2023-11-19T22:53:28;98501.17;;;5.78;100.00
62703;BME280;66022;50.448;18.122;2023-11-19T22:57:55;98500.66;;;5.87;100.00
62703;BME280;66022;50.448;18.122;2023-11-19T23:02:24;98501.20;;;5.92;100.00
62703;BME280;66022;50.448;18.122;2023-11-19T23:06:51;98501.45;;;5.98;100.00
62703;BME280;66022;50.448;18.122;2023-11-19T23:11:20;98501.79;;;6.02;100.00
62703;BME280;66022;50.448;18.122;2023-11-19T23:15:47;98501.78;;;6.05;100.00
62703;BME280;66022;50.448;18.122;2023-11-19T23:20:16;98501.98;;;6.07;100.00
62703;BME280;66022;50.448;18.122;2023-11-19T23:24:45;98501.33;;;6.06;100.00
62703;BME280;66022;50.448;18.122;2023-11-19T23:29:12;98500.14;;;6.06;100.00
62703;BME280;66022;50.448;18.122;2023-11-19T23:33:40;98498.44;;;6.04;100.00
62703;BME280;66022;50.448;18.122;2023-11-19T23:38:07;98497.55;;;6.03;100.00
62703;BME280;66022;50.448;18.122;2023-11-19T23:42:36;98495.03;;;5.99;100.00
62703;BME280;66022;50.448;18.122;2023-11-19T23:47:04;98493.69;;;5.99;100.00
62703;BME280;66022;50.448;18.122;2023-11-19T23:51:31;98491.96;;;5.99;100.00
62703;BME280;66022;50.448;18.122;2023-11-19T23:55:59;98489.84;;;5.99;100.00
